Bowerman Airport
KHQM : now visible

Airfield :











YOU CAN JOIN US ON...

 
LOGIN :

Register | Disclaimer

   EN    FR    IT 

 









Legend :    VFR   Marginal VFR   IFR   Intensive IFR   Very Intensive IFR
Visi :
Ceiling :
>= 8 km
>= 3000ft
5 to 8 km
1000 to 3000 ft
1500m to 5 km
500 to 1000 ft
800 to 1500m
200 to 500 ft
< 800m
< 200 ft
Symbols :   Thunderstorms  Fog  Heavy snow  Heavy precipitations  Wind > 20 kt






- Airport Elevation : 18 ft


KHQM - Bowerman

CURRENT METAR :
  • 250826Z AUTO 19010KT 10SM -RA SCT015 BKN020 OVC070 16/13 A2983 RMK AO2 RAB0757 P0000 T01610128

EXPIRED METARs :
  • 250753Z AUTO 19012KT 10SM FEW018 BKN065 OVC090 16/13 A2985 RMK AO2 RAB18E53 SLP112 P0002 T01610128 401830150
  • 250734Z AUTO 18013KT 7SM -RA SCT019 BKN048 OVC075 16/13 A2986 RMK AO2 RAB18 P0001 T01560128
  • 250724Z AUTO 19016G22KT 9SM -RA BKN019 BKN060 OVC120 16/13 A2987 RMK AO2 RAB18 CIG 013V028 P0000 T01610128
  • 250653Z AUTO 18012KT 10SM FEW015 BKN080 OVC100 16/13 A2988 RMK AO2 SLP120 T01610128
  • 250605Z AUTO 18013KT 10SM FEW013 BKN065 OVC100 16/13 A2989 RMK AO2 T01610128
  • 250553Z AUTO 19013KT 10SM BKN013 BKN070 OVC100 16/13 A2990 RMK AO2 SLP128 T01610128 10172 20150 58017
  • 250545Z AUTO 18012KT 10SM SCT014 BKN070 OVC100 16/13 A2990 RMK AO2 T01610128

TAF KHQM
Valid from the 25 at 06:00 until the 26 at 06:00 UTC


250531Z 2506/2606 19014G22KT P6SM SCT015 OVC090
TEMPO 2506/2509 6SM -RA BR OVC015
FM250900 17022G32KT 4SM -RA OVC015
FM251300 20025G38KT 2SM RA BR OVC009
FM251800 22020G30KT 5SM -SHRA BR BKN015 OVC030
FM252200 23018KT P6SM VCSH SCT025 BKN050
FM260100 23010KT P6SM VCSH SCT025 BKN050
KZSE FIR / North America



MET'MAP, your aeronautical weather chart ! - Copyright ORBIFLY December 2007 - Disclaimer

ORBIFLY MET'MAP TEAM :

Programming & Development : Alexandra Zaïnal
Concept & original design : Baudouin d'Aumeries
Assistance for programming : Marc-Olivier Méhu
Technical & hardware support : Manuel Goepfert

Contact : metmap@orbifly.com




SOURCES & CREDITS :

   NOAA       Earth
Advisory